createdAt,value
2022-12-11T00:00:41.174Z,10.33
2022-12-11T00:03:14.282Z,10.90
2022-12-11T00:05:43.634Z,10.27
2022-12-11T00:08:11.907Z,10.17
2022-12-11T00:10:40.025Z,10.70
2022-12-11T00:13:07.973Z,10.33
2022-12-11T00:15:35.893Z,10.13
2022-12-11T00:18:05.188Z,9.93
2022-12-11T00:20:33.043Z,10.40
2022-12-11T00:23:00.927Z,10.13
2022-12-11T00:25:28.888Z,10.37
2022-12-11T00:27:56.767Z,9.80
2022-12-11T00:30:24.958Z,10.53
2022-12-11T00:32:53.079Z,9.83
2022-12-11T00:35:22.296Z,10.47
2022-12-11T00:37:50.237Z,9.63
2022-12-11T00:40:18.191Z,9.47
2022-12-11T00:42:47.185Z,9.87
2022-12-11T00:45:15.423Z,9.50
2022-12-11T00:47:43.301Z,10.20
2022-12-11T00:50:12.199Z,9.93
2022-12-11T00:52:48.108Z,9.67
2022-12-11T00:55:15.984Z,9.63
2022-12-11T00:57:43.855Z,9.77
2022-12-11T01:00:13.542Z,10.23
2022-12-11T01:02:41.852Z,9.37
2022-12-11T01:05:11.349Z,9.37
2022-12-11T01:07:39.447Z,9.10
2022-12-11T01:10:26.626Z,9.20
2022-12-11T01:12:57.547Z,9.37
2022-12-11T01:15:28.267Z,10.37
2022-12-11T01:17:56.817Z,9.60
2022-12-11T01:20:26.465Z,9.87
2022-12-11T01:22:55.649Z,9.70
2022-12-11T01:25:25.389Z,9.47
2022-12-11T01:27:54.495Z,9.13
2022-12-11T01:30:24.279Z,9.37
2022-12-11T01:32:52.331Z,9.67
2022-12-11T01:35:20.990Z,9.70
2022-12-11T01:37:49.455Z,9.27
2022-12-11T01:40:19.363Z,9.70
2022-12-11T01:42:48.780Z,9.27
2022-12-11T01:45:27.219Z,9.60
2022-12-11T01:48:01.700Z,10.33
2022-12-11T01:50:32.541Z,9.57
2022-12-11T01:53:00.694Z,9.77
2022-12-11T01:55:28.657Z,9.87
2022-12-11T01:57:58.007Z,9.87
2022-12-11T02:00:26.129Z,9.37
2022-12-11T02:02:54.033Z,9.73
2022-12-11T02:05:22.274Z,9.07
2022-12-11T02:07:53.741Z,9.53
2022-12-11T02:10:23.201Z,9.63
2022-12-11T02:13:00.292Z,9.60
2022-12-11T02:15:36.706Z,9.77
2022-12-11T02:18:16.590Z,9.87
2022-12-11T02:20:54.965Z,9.57
2022-12-11T02:23:45.244Z,10.03
2022-12-11T02:26:26.049Z,10.03
2022-12-11T02:28:58.979Z,9.67
2022-12-11T02:31:32.971Z,9.50
2022-12-11T02:34:04.514Z,9.80
2022-12-11T02:36:36.705Z,9.40
2022-12-11T02:39:08.120Z,9.23
2022-12-11T02:41:37.090Z,10.17
2022-12-11T02:44:07.229Z,10.17
2022-12-11T02:46:37.519Z,9.43
2022-12-11T02:49:08.004Z,9.17
2022-12-11T02:51:40.043Z,9.73
2022-12-11T02:54:12.469Z,9.40
2022-12-11T02:56:44.155Z,9.70
2022-12-11T02:59:16.584Z,9.43
2022-12-11T03:01:44.735Z,10.03
2022-12-11T03:04:12.832Z,10.33
2022-12-11T03:06:46.578Z,10.00
2022-12-11T03:09:14.782Z,9.20
2022-12-11T03:11:42.682Z,9.70
2022-12-11T03:14:11.369Z,10.20
2022-12-11T03:16:46.168Z,10.53
2022-12-11T03:19:22.703Z,11.07
2022-12-11T03:21:55.105Z,10.47
2022-12-11T03:24:31.184Z,10.67
2022-12-11T03:27:09.535Z,9.73
2022-12-11T03:29:42.031Z,10.57
2022-12-11T03:32:15.609Z,9.67
2022-12-11T03:34:48.914Z,10.13
2022-12-11T03:37:18.245Z,9.50
2022-12-11T03:39:50.006Z,9.90
2022-12-11T03:42:20.369Z,10.17
2022-12-11T03:44:51.317Z,9.50
2022-12-11T03:47:24.730Z,10.07
2022-12-11T03:49:54.360Z,9.37
2022-12-11T03:52:23.889Z,9.13
2022-12-11T03:54:52.557Z,9.57
2022-12-11T03:57:24.679Z,9.53
2022-12-11T03:59:53.341Z,9.80
2022-12-11T04:02:22.517Z,10.17
2022-12-11T04:04:50.445Z,9.00
2022-12-11T04:07:18.345Z,8.97
2022-12-11T04:09:46.221Z,9.70
2022-12-11T04:12:14.136Z,9.50
2022-12-11T04:15:00.884Z,9.57
2022-12-11T04:18:02.622Z,9.03
2022-12-11T04:20:47.986Z,9.07
2022-12-11T04:23:35.995Z,9.30
2022-12-11T04:26:08.377Z,8.80
2022-12-11T04:28:37.585Z,9.13
2022-12-11T04:31:05.896Z,9.37
2022-12-11T04:33:35.212Z,8.80
2022-12-11T04:36:03.158Z,9.33
2022-12-11T04:38:31.152Z,8.40
2022-12-11T04:41:00.454Z,8.33
2022-12-11T04:43:29.077Z,8.57
2022-12-11T04:46:03.523Z,8.93
2022-12-11T04:48:31.609Z,9.07
2022-12-11T04:51:00.879Z,8.60
2022-12-11T04:53:29.117Z,8.30
2022-12-11T04:55:57.423Z,8.67
2022-12-11T04:58:26.080Z,8.43
2022-12-11T05:00:54.356Z,8.33
2022-12-11T05:03:22.306Z,8.40
2022-12-11T05:05:51.061Z,7.73
2022-12-11T05:08:21.311Z,7.63
2022-12-11T05:10:57.313Z,8.70
2022-12-11T05:13:25.317Z,8.17
2022-12-11T05:15:53.417Z,7.50
2022-12-11T05:18:21.617Z,8.13
2022-12-11T05:20:56.779Z,8.70
2022-12-11T05:23:26.573Z,8.27
2022-12-11T05:25:54.814Z,8.23
2022-12-11T05:28:23.310Z,7.87
2022-12-11T05:30:56.385Z,8.80
2022-12-11T05:33:24.445Z,7.90
2022-12-11T05:35:52.830Z,8.57
2022-12-11T05:38:21.015Z,8.93
2022-12-11T05:40:58.748Z,8.73
2022-12-11T05:43:27.464Z,9.03
2022-12-11T05:45:56.155Z,9.00
2022-12-11T05:48:24.278Z,9.77
2022-12-11T05:50:58.938Z,10.13
2022-12-11T05:53:27.001Z,10.20
2022-12-11T05:55:55.048Z,11.07
2022-12-11T05:58:24.375Z,10.70
2022-12-11T06:00:52.360Z,10.30
2022-12-11T06:03:20.368Z,10.70
2022-12-11T06:05:48.258Z,10.07
2022-12-11T06:08:16.227Z,9.80
2022-12-11T06:10:46.756Z,9.80
2022-12-11T06:13:14.910Z,10.93
2022-12-11T06:15:44.154Z,10.03
2022-12-11T06:18:11.994Z,10.87
2022-12-11T06:20:40.012Z,11.10
2022-12-11T06:23:08.096Z,10.50
2022-12-11T06:25:36.280Z,10.10
2022-12-11T06:28:04.745Z,9.93
2022-12-11T06:30:38.630Z,9.40
2022-12-11T06:33:08.654Z,9.63
2022-12-11T06:35:42.121Z,9.47
2022-12-11T06:38:11.373Z,9.73
2022-12-11T06:40:39.636Z,10.10
2022-12-11T06:43:07.495Z,10.83
2022-12-11T06:45:35.442Z,11.50
2022-12-11T06:48:03.357Z,10.77
2022-12-11T06:50:32.610Z,9.17
2022-12-11T06:53:00.587Z,8.73
2022-12-11T06:55:28.591Z,8.30
2022-12-11T06:57:56.584Z,8.43
2022-12-11T07:00:24.471Z,9.17
2022-12-11T07:02:52.483Z,9.70
2022-12-11T07:05:20.712Z,9.17
2022-12-11T07:07:50.139Z,8.90
2022-12-11T07:10:18.441Z,9.33
2022-12-11T07:12:46.353Z,9.43
2022-12-11T07:15:14.377Z,8.93
2022-12-11T07:17:42.511Z,9.30
2022-12-11T07:20:11.375Z,8.77
2022-12-11T07:22:46.088Z,8.80
2022-12-11T07:25:15.955Z,9.17
2022-12-11T07:27:43.844Z,9.33
2022-12-11T07:30:12.901Z,8.30
2022-12-11T07:32:40.793Z,8.50
2022-12-11T07:35:10.196Z,8.43
2022-12-11T07:37:40.734Z,8.53
2022-12-11T07:40:10.070Z,8.47
2022-12-11T07:42:45.808Z,8.57
2022-12-11T07:45:14.463Z,9.00
2022-12-11T07:47:42.782Z,9.60
2022-12-11T07:50:11.273Z,9.37
2022-12-11T07:52:39.195Z,8.83
2022-12-11T07:55:07.432Z,8.97
2022-12-11T07:57:35.393Z,9.10
2022-12-11T08:00:06.069Z,8.73
2022-12-11T08:02:40.321Z,8.80
2022-12-11T08:05:10.256Z,9.03
2022-12-11T08:07:38.380Z,9.53
2022-12-11T08:10:07.253Z,9.37
2022-12-11T08:12:35.260Z,9.20
2022-12-11T08:15:04.909Z,9.33
2022-12-11T08:17:38.251Z,9.20
2022-12-11T08:20:09.397Z,8.23
2022-12-11T08:22:37.451Z,9.57
2022-12-11T08:25:06.095Z,8.97
2022-12-11T08:27:33.990Z,8.90
2022-12-11T08:30:02.004Z,8.97
2022-12-11T08:32:31.563Z,9.27
2022-12-11T08:34:59.642Z,9.10
2022-12-11T08:37:27.931Z,9.53
2022-12-11T08:39:56.189Z,9.43
2022-12-11T08:42:24.313Z,9.30
2022-12-11T08:44:52.281Z,8.70
2022-12-11T08:47:21.272Z,9.13
2022-12-11T08:49:50.632Z,8.40
2022-12-11T08:52:18.565Z,8.97
2022-12-11T08:54:46.529Z,8.97
2022-12-11T08:57:14.674Z,8.40
2022-12-11T08:59:42.773Z,9.43
2022-12-11T09:02:13.352Z,8.70
2022-12-11T09:04:41.774Z,9.10
2022-12-11T09:07:11.198Z,8.80
2022-12-11T09:09:39.675Z,9.77
2022-12-11T09:12:07.818Z,8.73
2022-12-11T09:14:36.039Z,8.97
2022-12-11T09:17:06.311Z,9.43
2022-12-11T09:19:34.270Z,9.20
2022-12-11T09:22:02.185Z,9.83
2022-12-11T09:24:31.641Z,9.37
2022-12-11T09:26:59.552Z,9.10
2022-12-11T09:29:27.386Z,9.37
2022-12-11T09:31:55.271Z,9.27
2022-12-11T09:34:29.211Z,9.27
2022-12-11T09:36:57.843Z,9.23
2022-12-11T09:39:25.914Z,9.40
2022-12-11T09:42:05.873Z,8.83
2022-12-11T09:44:43.263Z,8.97
2022-12-11T09:47:20.813Z,8.83
2022-12-11T09:49:52.201Z,9.23
2022-12-11T09:52:24.633Z,10.30
2022-12-11T09:54:57.124Z,9.50
2022-12-11T09:57:38.802Z,10.17
2022-12-11T10:00:15.623Z,9.20
2022-12-11T10:03:03.742Z,10.60
2022-12-11T10:05:38.497Z,9.63
2022-12-11T10:08:16.916Z,9.53
2022-12-11T10:10:50.270Z,9.13
2022-12-11T10:13:30.917Z,10.20
2022-12-11T10:16:03.201Z,8.93
2022-12-11T10:18:32.262Z,9.67
2022-12-11T10:21:03.393Z,9.30
2022-12-11T10:23:36.990Z,9.73
2022-12-11T10:26:08.219Z,9.17
2022-12-11T10:28:37.730Z,9.33
2022-12-11T10:31:14.902Z,8.67
2022-12-11T10:33:53.573Z,8.93
2022-12-11T10:36:28.287Z,7.87
2022-12-11T10:38:56.587Z,8.47
2022-12-11T10:41:34.074Z,8.83
2022-12-11T10:44:16.388Z,8.50
2022-12-11T10:46:45.209Z,7.83
2022-12-11T10:49:23.862Z,7.83
2022-12-11T10:51:53.108Z,7.20
2022-12-11T10:54:32.015Z,7.67
2022-12-11T10:57:02.609Z,12.97
2022-12-11T10:59:37.769Z,10.40
2022-12-11T11:02:08.253Z,9.50
2022-12-11T11:04:38.891Z,10.93
2022-12-11T11:07:14.576Z,8.27
2022-12-11T11:09:42.976Z,8.97
2022-12-11T11:12:22.753Z,10.13
2022-12-11T11:15:01.652Z,10.50
2022-12-11T11:17:34.732Z,9.90
2022-12-11T11:20:13.812Z,10.90
2022-12-11T11:22:45.991Z,11.33
2022-12-11T11:25:19.838Z,10.80
2022-12-11T11:27:52.369Z,11.40
2022-12-11T11:30:24.836Z,11.90
2022-12-11T11:32:55.988Z,10.73
2022-12-11T11:35:26.619Z,16.67
2022-12-11T11:38:18.218Z,14.77
2022-12-11T11:40:51.987Z,12.80
2022-12-11T11:43:37.753Z,20.80
2022-12-11T11:46:13.095Z,13.90
2022-12-11T11:48:50.477Z,12.13
2022-12-11T11:51:23.962Z,12.27
2022-12-11T11:53:54.598Z,12.03
2022-12-11T11:56:26.806Z,12.10
2022-12-11T11:59:09.160Z,13.03
2022-12-11T12:01:38.608Z,12.87
2022-12-11T12:04:06.563Z,13.30
2022-12-11T12:06:51.929Z,11.80
2022-12-11T12:09:30.823Z,12.07
2022-12-11T12:12:07.116Z,11.47
2022-12-11T12:14:55.511Z,11.43
2022-12-11T12:17:32.446Z,10.83
2022-12-11T12:20:12.120Z,12.83
2022-12-11T12:22:54.062Z,12.53
2022-12-11T12:25:28.157Z,12.90
2022-12-11T12:28:04.800Z,12.97
2022-12-11T12:30:39.476Z,11.77
2022-12-11T12:33:22.013Z,11.77
2022-12-11T12:36:03.556Z,10.87
2022-12-11T12:38:43.686Z,12.17
2022-12-11T12:41:19.492Z,11.80
2022-12-11T12:44:11.036Z,12.27
2022-12-11T12:46:50.027Z,13.83
2022-12-11T12:49:35.189Z,16.13
2022-12-11T12:52:05.138Z,12.60
2022-12-11T12:54:37.188Z,12.50
2022-12-11T12:57:05.787Z,12.67
2022-12-11T12:59:33.790Z,12.97
2022-12-11T13:02:04.343Z,12.10
2022-12-11T13:04:56.041Z,10.73
2022-12-11T13:07:29.943Z,11.83
2022-12-11T13:10:01.789Z,12.73
2022-12-11T13:12:40.586Z,15.30
2022-12-11T13:15:27.611Z,11.97
2022-12-11T13:17:56.024Z,10.73
2022-12-11T13:20:27.944Z,11.30
2022-12-11T13:23:17.653Z,14.23
2022-12-11T13:25:54.459Z,13.73
2022-12-11T13:28:25.503Z,13.67
2022-12-11T13:31:06.424Z,12.43
2022-12-11T13:33:42.028Z,12.83
2022-12-11T13:36:31.322Z,12.80
2022-12-11T13:39:03.287Z,12.90
2022-12-11T13:41:35.504Z,14.17
2022-12-11T13:44:05.339Z,12.57
2022-12-11T13:46:37.781Z,14.03
2022-12-11T13:49:08.170Z,18.10
2022-12-11T13:51:39.800Z,16.43
2022-12-11T13:54:17.188Z,13.93
2022-12-11T13:56:59.728Z,13.53
2022-12-11T13:59:31.266Z,15.23
2022-12-11T14:02:04.860Z,14.80
2022-12-11T14:04:34.746Z,14.17
2022-12-11T14:07:09.246Z,13.50
2022-12-11T14:09:41.329Z,20.70
2022-12-11T14:12:17.343Z,14.03
2022-12-11T14:14:50.818Z,16.10
2022-12-11T14:17:24.553Z,17.57
2022-12-11T14:19:56.751Z,15.43
2022-12-11T14:22:28.340Z,18.50
2022-12-11T14:24:59.134Z,21.63
2022-12-11T14:27:28.666Z,18.27
2022-12-11T14:29:57.056Z,17.23
2022-12-11T14:32:33.024Z,14.43
2022-12-11T14:35:03.156Z,15.90
2022-12-11T14:37:35.213Z,16.50
2022-12-11T14:40:08.006Z,15.90
2022-12-11T14:42:41.620Z,18.90
2022-12-11T14:45:21.687Z,14.17
2022-12-11T14:47:51.745Z,14.57
2022-12-11T14:50:23.586Z,11.43
2022-12-11T14:53:05.393Z,12.77
2022-12-11T14:55:37.516Z,30.13
2022-12-11T14:58:08.026Z,28.37
2022-12-11T15:00:37.858Z,18.17
2022-12-11T15:03:21.265Z,24.37
2022-12-11T15:05:54.309Z,14.07
2022-12-11T15:08:30.518Z,13.47
2022-12-11T15:11:09.208Z,13.17
2022-12-11T15:13:40.279Z,13.77
2022-12-11T15:16:17.038Z,13.87
2022-12-11T15:18:49.392Z,12.83
2022-12-11T15:21:18.601Z,14.73
2022-12-11T15:23:54.222Z,13.80
2022-12-11T15:26:46.521Z,14.87
2022-12-11T15:29:27.501Z,12.07
2022-12-11T15:32:03.551Z,12.50
2022-12-11T15:34:36.109Z,13.00
2022-12-11T15:37:04.203Z,13.50
2022-12-11T15:39:34.179Z,13.20
2022-12-11T15:42:02.380Z,14.47
2022-12-11T15:44:30.332Z,13.70
2022-12-11T15:46:58.187Z,15.13
2022-12-11T15:49:26.067Z,15.20
2022-12-11T15:51:54.554Z,15.07
2022-12-11T15:54:22.406Z,15.90
2022-12-11T15:56:51.726Z,13.10
2022-12-11T15:59:20.014Z,12.70
2022-12-11T16:01:47.856Z,15.27
2022-12-11T16:04:15.743Z,13.57
2022-12-11T16:06:46.291Z,13.30
2022-12-11T16:09:15.170Z,13.93
2022-12-11T16:11:43.207Z,13.90
2022-12-11T16:14:12.383Z,12.70
2022-12-11T16:16:40.214Z,14.23
2022-12-11T16:19:08.432Z,15.97
2022-12-11T16:21:36.357Z,13.97
2022-12-11T16:24:04.582Z,12.90
2022-12-11T16:26:33.130Z,16.17
2022-12-11T16:29:01.893Z,14.03
2022-12-11T16:31:31.222Z,15.73
2022-12-11T16:33:59.310Z,23.57
2022-12-11T16:36:27.249Z,14.23
2022-12-11T16:38:55.062Z,13.73
2022-12-11T16:41:24.073Z,13.80
2022-12-11T16:43:52.405Z,13.57
2022-12-11T16:46:22.714Z,12.37
2022-12-11T16:48:53.080Z,13.27
2022-12-11T16:51:20.930Z,12.77
2022-12-11T16:53:48.808Z,13.27
2022-12-11T16:56:16.796Z,12.60
2022-12-11T16:58:44.671Z,14.07
2022-12-11T17:01:13.868Z,13.70
2022-12-11T17:03:43.092Z,12.50
2022-12-11T17:06:14.255Z,13.80
2022-12-11T17:08:42.860Z,12.43
2022-12-11T17:11:13.031Z,13.50
2022-12-11T17:13:41.197Z,13.10
2022-12-11T17:16:10.562Z,14.50
2022-12-11T17:18:39.357Z,15.03
2022-12-11T17:21:08.129Z,13.37
2022-12-11T17:23:37.416Z,13.13
2022-12-11T17:26:06.058Z,14.17
2022-12-11T17:28:34.062Z,13.60
2022-12-11T17:31:05.545Z,13.47
2022-12-11T17:33:33.436Z,13.63
2022-12-11T17:36:01.719Z,15.07
2022-12-11T17:38:29.877Z,18.83
2022-12-11T17:40:59.504Z,20.30
2022-12-11T17:43:27.446Z,17.53
2022-12-11T17:45:55.745Z,17.10
2022-12-11T17:48:23.708Z,17.53
2022-12-11T17:50:53.400Z,18.37
2022-12-11T17:53:23.018Z,17.47
2022-12-11T17:55:51.745Z,18.23
2022-12-11T17:58:23.638Z,18.13
2022-12-11T18:00:54.198Z,17.70
2022-12-11T18:03:22.489Z,17.50
2022-12-11T18:05:52.142Z,16.90
2022-12-11T18:08:22.246Z,16.80
2022-12-11T18:10:50.298Z,16.50
2022-12-11T18:13:18.210Z,16.10
2022-12-11T18:15:48.437Z,15.43
2022-12-11T18:18:16.474Z,17.27
2022-12-11T18:20:44.887Z,16.07
2022-12-11T18:23:12.723Z,16.33
2022-12-11T18:25:40.682Z,16.03
2022-12-11T18:28:08.758Z,17.90
2022-12-11T18:30:36.669Z,15.27
2022-12-11T18:33:05.972Z,15.03
2022-12-11T18:35:33.956Z,15.43
2022-12-11T18:38:01.834Z,16.23
2022-12-11T18:40:29.841Z,16.33
2022-12-11T18:42:58.931Z,18.17
2022-12-11T18:45:26.890Z,15.57
2022-12-11T18:47:55.649Z,15.90
2022-12-11T18:50:25.163Z,16.93
2022-12-11T18:52:55.097Z,18.43
2022-12-11T18:55:22.959Z,20.10
2022-12-11T18:57:50.993Z,16.07
2022-12-11T19:00:19.855Z,17.83
2022-12-11T19:02:50.546Z,15.20
2022-12-11T19:05:18.486Z,15.67
2022-12-11T19:07:47.808Z,15.07
2022-12-11T19:10:15.796Z,15.97
2022-12-11T19:12:43.780Z,15.20
2022-12-11T19:15:12.641Z,15.53
2022-12-11T19:17:42.760Z,14.83
2022-12-11T19:20:40.372Z,15.33
2022-12-11T19:23:01.903Z,14.67
2022-12-11T19:25:29.959Z,14.97
2022-12-11T19:27:57.919Z,15.50
2022-12-11T19:30:25.952Z,16.07
2022-12-11T19:32:54.378Z,16.20
2022-12-11T19:35:22.448Z,15.43
2022-12-11T19:37:50.418Z,15.77
2022-12-11T19:40:21.671Z,15.40
2022-12-11T19:42:49.531Z,15.30
2022-12-11T19:45:17.897Z,15.97
2022-12-11T19:47:45.743Z,16.97
2022-12-11T19:50:13.649Z,15.37
2022-12-11T19:52:45.972Z,15.33
2022-12-11T19:55:15.081Z,14.93
2022-12-11T19:57:44.419Z,15.27
2022-12-11T20:00:13.121Z,23.13
2022-12-11T20:02:41.000Z,18.67
2022-12-11T20:05:09.946Z,16.77
2022-12-11T20:07:38.641Z,17.63
2022-12-11T20:10:07.542Z,17.90
2022-12-11T20:12:35.410Z,16.47
2022-12-11T20:15:06.334Z,16.03
2022-12-11T20:17:34.366Z,16.83
2022-12-11T20:20:02.252Z,16.20
2022-12-11T20:22:30.100Z,16.83
2022-12-11T20:24:58.141Z,16.43
2022-12-11T20:27:26.123Z,16.53
2022-12-11T20:29:54.040Z,16.13
2022-12-11T20:32:23.261Z,15.47
2022-12-11T20:34:51.131Z,15.63
2022-12-11T20:37:19.001Z,14.83
2022-12-11T20:39:46.873Z,15.43
2022-12-11T20:42:14.767Z,15.00
2022-12-11T20:44:47.341Z,15.07
2022-12-11T20:47:19.581Z,14.83
2022-12-11T20:49:50.291Z,16.63
2022-12-11T20:52:18.724Z,15.73
2022-12-11T20:54:46.781Z,16.37
2022-12-11T20:57:16.319Z,16.00
2022-12-11T20:59:45.196Z,16.43
2022-12-11T21:02:13.835Z,15.77
2022-12-11T21:04:42.184Z,15.43
2022-12-11T21:07:11.659Z,15.30
2022-12-11T21:09:40.098Z,15.73
2022-12-11T21:12:08.757Z,15.77
2022-12-11T21:14:36.938Z,16.17
2022-12-11T21:17:05.478Z,15.47
2022-12-11T21:19:33.822Z,15.63
2022-12-11T21:22:01.976Z,14.73
2022-12-11T21:24:31.500Z,15.00
2022-12-11T21:27:00.011Z,15.43
2022-12-11T21:29:30.244Z,15.10
2022-12-11T21:31:58.740Z,15.93
2022-12-11T21:34:26.672Z,15.70
2022-12-11T21:36:56.760Z,14.83
2022-12-11T21:39:25.883Z,15.30
2022-12-11T21:41:55.255Z,15.20
2022-12-11T21:47:11.349Z,15.63
2022-12-11T21:49:39.248Z,16.17
2022-12-11T21:52:08.316Z,16.37
2022-12-11T21:54:36.461Z,15.93
2022-12-11T21:57:06.074Z,16.53
2022-12-11T21:59:35.718Z,16.00
2022-12-11T22:02:03.753Z,16.90
2022-12-11T22:04:31.670Z,17.07
2022-12-11T22:06:59.548Z,17.07
2022-12-11T22:09:27.585Z,16.77
2022-12-11T22:11:58.627Z,16.47
2022-12-11T22:14:30.723Z,16.10
2022-12-11T22:17:00.547Z,16.17
2022-12-11T22:19:32.987Z,18.20
2022-12-11T22:22:01.854Z,18.13
2022-12-11T22:24:29.752Z,19.23
2022-12-11T22:27:03.968Z,15.53
2022-12-11T22:29:40.632Z,16.07
2022-12-11T22:32:16.851Z,18.10
2022-12-11T22:34:53.566Z,17.47
2022-12-11T22:37:27.649Z,18.40
2022-12-11T22:40:05.319Z,17.97
2022-12-11T22:42:44.210Z,16.40
2022-12-11T22:45:27.024Z,17.87
2022-12-11T22:48:05.057Z,17.27
2022-12-11T22:50:53.806Z,17.40
2022-12-11T22:53:32.606Z,16.97
2022-12-11T22:56:17.831Z,16.60
2022-12-11T22:58:51.536Z,15.80
2022-12-11T23:01:32.873Z,15.97
2022-12-11T23:04:11.523Z,15.97
2022-12-11T23:06:50.915Z,16.43
2022-12-11T23:09:27.384Z,16.20
2022-12-11T23:12:06.923Z,16.67
2022-12-11T23:14:43.728Z,16.07
2022-12-11T23:17:26.355Z,15.80
2022-12-11T23:20:05.497Z,16.07
2022-12-11T23:22:42.835Z,16.50
2022-12-11T23:25:20.706Z,16.50
2022-12-11T23:27:59.689Z,16.90
2022-12-11T23:30:36.173Z,16.27
2022-12-11T23:33:13.039Z,15.77
2022-12-11T23:35:48.718Z,16.23
2022-12-11T23:38:29.175Z,16.27
2022-12-11T23:41:07.751Z,15.00
2022-12-11T23:43:45.508Z,14.57
2022-12-11T23:46:28.774Z,15.23
2022-12-11T23:49:10.084Z,15.33
2022-12-11T23:51:45.307Z,14.27
2022-12-11T23:54:22.652Z,14.60
2022-12-11T23:57:06.071Z,14.20
2022-12-11T23:59:42.396Z,13.80
